Time;durP1;ratioP1;P1;durP2;ratioP2;P2;SDS_P1;SDS_P2;PMS_P1;PMS_P2;Temp;Humidity;BMP_temperature;BMP_pressure;BME280_temperature;BME280_humidity;BME280_pressure;Samples;Min_cycle;Max_cycle;Signal;HPM_P1;HPM_P2
2021/10/16 00:00:13;;;;;;;;;;;;;;;7.25;nan;99548.88;5075059;28;20287;-79
2021/10/16 00:02:41;;;;;;;;;;;;;;;7.55;nan;99546.63;5074852;28;19924;-79
2021/10/16 00:05:08;;;;;;;;;;;;;;;7.62;nan;99546.63;5074583;28;19929;-79
2021/10/16 00:07:35;;;;;;;;;;;;;;;7.73;nan;99552.22;5057064;28;19928;-80
2021/10/16 00:10:03;;;;;;;;;;;;;;;7.85;nan;99543.53;5057026;28;19924;-80
2021/10/16 00:12:31;;;;;;;;;;;;;;;7.58;nan;99551.41;5074543;28;19931;-80
2021/10/16 00:14:59;;;;;;;;;;;;;;;7.60;nan;99540.69;5074481;28;20571;-79
2021/10/16 00:17:26;;;;;;;;;;;;;;;7.82;nan;99541.53;5074461;28;20399;-80
2021/10/16 00:19:53;;;;;;;;;;;;;;;7.92;nan;99547.13;5053365;28;19929;-80
2021/10/16 00:22:20;;;;;;;;;;;;;;;8.10;nan;99545.19;5071842;28;19925;-80
2021/10/16 00:24:48;;;;;;;;;;;;;;;7.84;nan;99537.19;5089991;28;19925;-80
2021/10/16 00:27:16;;;;;;;;;;;;;;;8.22;nan;99536.47;5074431;28;20041;-80
2021/10/16 00:29:44;;;;;;;;;;;;;;;8.49;nan;99534.91;5056676;28;19925;-80
2021/10/16 00:32:11;;;;;;;;;;;;;;;8.65;nan;99521.34;5056366;28;19993;-79
2021/10/16 00:34:39;;;;;;;;;;;;;;;8.23;nan;99526.94;5074328;28;19939;-80
2021/10/16 00:37:06;;;;;;;;;;;;;;;8.48;nan;99527.72;5056409;28;19928;-80
2021/10/16 00:39:34;;;;;;;;;;;;;;;8.67;nan;99518.97;5056510;28;19924;-80
2021/10/16 00:42:01;;;;;;;;;;;;;;;8.70;nan;99520.16;5072874;28;19924;-80
2021/10/16 00:44:29;;;;;;;;;;;;;;;8.89;nan;99520.50;5056395;28;19924;-79
2021/10/16 00:46:57;;;;;;;;;;;;;;;8.21;nan;99512.56;5056092;28;19924;-79
2021/10/16 00:49:27;;;;;;;;;;;;;;;8.65;nan;99518.56;5054987;28;19932;-79
2021/10/16 00:51:56;;;;;;;;;;;;;;;8.32;nan;99520.97;5055773;28;19969;-79
2021/10/16 00:54:23;;;;;;;;;;;;;;;8.76;nan;99524.91;5055774;28;19924;-80
2021/10/16 00:56:51;;;;;;;;;;;;;;;8.83;nan;99518.53;5052421;28;19925;-79
2021/10/16 00:59:19;;;;;;;;;;;;;;;8.96;nan;99511.34;5046619;28;19931;-80
2021/10/16 01:01:47;;;;;;;;;;;;;;;9.01;nan;99511.72;5052528;28;19933;-79
2021/10/16 01:04:15;;;;;;;;;;;;;;;8.88;nan;99506.97;5045213;28;20365;-79
2021/10/16 01:06:50;;;;;;;;;;;;;;;8.36;nan;99500.28;5052303;28;19924;-79
2021/10/16 01:09:17;;;;;;;;;;;;;;;8.35;nan;99501.47;5047968;28;20425;-79
2021/10/16 01:11:56;;;;;;;;;;;;;;;8.55;nan;99505.44;5052349;28;19929;-79
2021/10/16 01:14:23;;;;;;;;;;;;;;;8.13;nan;99504.63;5044526;28;19925;-79
2021/10/16 01:16:52;;;;;;;;;;;;;;;8.15;nan;99507.81;5071499;28;19928;-79
2021/10/16 01:19:21;;;;;;;;;;;;;;;8.08;nan;99503.03;5052077;28;19924;-79
2021/10/16 01:21:49;;;;;;;;;;;;;;;8.36;nan;99494.69;5045457;28;19925;-79
2021/10/16 01:24:18;;;;;;;;;;;;;;;8.49;nan;99490.34;5038746;28;20398;-79
2021/10/16 01:26:47;;;;;;;;;;;;;;;8.66;nan;99486.72;5039463;28;20253;-79
2021/10/16 01:29:17;;;;;;;;;;;;;;;8.87;nan;99481.13;5055696;28;19925;-79
2021/10/16 01:31:44;;;;;;;;;;;;;;;8.93;nan;99489.84;5073386;28;20290;-79
2021/10/16 01:34:12;;;;;;;;;;;;;;;8.82;nan;99480.72;5039319;28;19930;-79
2021/10/16 01:36:42;;;;;;;;;;;;;;;8.26;nan;99476.03;5073429;28;19924;-79
2021/10/16 01:39:10;;;;;;;;;;;;;;;8.64;nan;99486.34;5055255;28;19932;-79
2021/10/16 01:41:40;;;;;;;;;;;;;;;8.85;nan;99472.34;5052393;28;19932;-79
2021/10/16 01:44:10;;;;;;;;;;;;;;;8.41;nan;99471.22;5050303;28;19924;-79
2021/10/16 01:46:41;;;;;;;;;;;;;;;8.39;nan;99468.84;5051988;28;20364;-79
2021/10/16 01:49:14;;;;;;;;;;;;;;;8.49;nan;99473.63;5049279;28;19925;-79
2021/10/16 01:51:42;;;;;;;;;;;;;;;8.66;nan;99464.41;5059168;28;19924;-79
2021/10/16 01:54:09;;;;;;;;;;;;;;;8.77;nan;99465.19;5051939;28;19924;-80
2021/10/16 01:56:39;;;;;;;;;;;;;;;8.05;nan;99456.50;5072353;28;19924;-79
2021/10/16 01:59:16;;;;;;;;;;;;;;;7.37;nan;99456.78;5055322;28;19924;-79
2021/10/16 02:02:37;;;;;;;;;;;;;;;7.62;nan;99454.84;4972464;28;19931;-79
2021/10/16 02:05:31;;;;;;;;;;;;;;;7.91;nan;99452.91;4968541;28;19926;-79
2021/10/16 02:08:21;;;;;;;;;;;;;;;8.23;nan;99443.41;4968210;28;20328;-79
2021/10/16 02:10:48;;;;;;;;;;;;;;;8.22;nan;99447.41;4956799;29;19926;-79
2021/10/16 02:13:17;;;;;;;;;;;;;;;8.32;nan;99443.81;4956122;28;19934;-79
2021/10/16 02:15:59;;;;;;;;;;;;;;;8.19;nan;99431.47;4959985;28;19926;-79
2021/10/16 02:18:36;;;;;;;;;;;;;;;7.86;nan;99444.97;4961101;28;19930;-79
2021/10/16 02:21:04;;;;;;;;;;;;;;;7.90;nan;99451.31;4959649;28;19931;-79
2021/10/16 02:23:32;;;;;;;;;;;;;;;7.30;nan;99445.63;4975840;28;20005;-79
2021/10/16 02:26:00;;;;;;;;;;;;;;;7.85;nan;99449.72;4959628;28;19926;-79
2021/10/16 02:28:29;;;;;;;;;;;;;;;7.79;nan;99440.19;4975757;28;19926;-79
2021/10/16 02:31:16;;;;;;;;;;;;;;;7.78;nan;99438.63;4943799;28;19945;-79
2021/10/16 02:33:43;;;;;;;;;;;;;;;7.82;nan;99439.41;5016007;28;19932;-79
2021/10/16 02:36:11;;;;;;;;;;;;;;;7.60;nan;99435.00;5054920;28;19925;-79
2021/10/16 02:38:38;;;;;;;;;;;;;;;6.31;nan;99436.03;5079297;28;19929;-79
2021/10/16 02:41:05;;;;;;;;;;;;;;;7.03;nan;99447.13;5038526;28;19955;-79
2021/10/16 02:43:32;;;;;;;;;;;;;;;7.31;nan;99436.13;5031929;28;19928;-79
2021/10/16 02:46:00;;;;;;;;;;;;;;;7.44;nan;99442.91;5057554;28;20357;-79
2021/10/16 02:48:27;;;;;;;;;;;;;;;7.39;nan;99435.75;5055364;28;19935;-79
2021/10/16 02:50:54;;;;;;;;;;;;;;;7.45;nan;99435.38;5034120;28;19924;-79
2021/10/16 02:53:23;;;;;;;;;;;;;;;6.96;nan;99434.03;5076236;28;19931;-79
2021/10/16 02:55:59;;;;;;;;;;;;;;;7.04;nan;99432.84;5057897;28;20299;-79
2021/10/16 02:58:26;;;;;;;;;;;;;;;6.88;nan;99442.69;5052365;28;19932;-79
2021/10/16 03:00:53;;;;;;;;;;;;;;;6.89;nan;99430.44;5047484;28;19925;-79
2021/10/16 03:03:21;;;;;;;;;;;;;;;6.73;nan;99421.59;5087592;28;19931;-79
2021/10/16 03:05:48;;;;;;;;;;;;;;;6.90;nan;99432.00;5038245;28;19924;-79
2021/10/16 03:08:17;;;;;;;;;;;;;;;6.79;nan;99415.28;5049271;28;19946;-79
2021/10/16 03:10:45;;;;;;;;;;;;;;;6.94;nan;99425.28;5058502;28;19934;-79
2021/10/16 03:13:18;;;;;;;;;;;;;;;6.91;nan;99428.03;5057671;28;19930;-79
2021/10/16 03:15:45;;;;;;;;;;;;;;;6.68;nan;99427.56;5054583;28;19929;-79
2021/10/16 03:18:13;;;;;;;;;;;;;;;6.88;nan;99418.50;5034828;28;19925;-79
2021/10/16 03:20:40;;;;;;;;;;;;;;;6.55;nan;99415.16;5058012;28;19970;-79
2021/10/16 03:23:12;;;;;;;;;;;;;;;6.80;nan;99421.66;5041052;28;19989;-79
2021/10/16 03:25:39;;;;;;;;;;;;;;;6.90;nan;99418.13;5037938;28;19932;-79
2021/10/16 03:28:06;;;;;;;;;;;;;;;6.62;nan;99420.78;5051009;28;19931;-79
2021/10/16 03:30:34;;;;;;;;;;;;;;;6.07;nan;99417.25;5037708;28;20353;-79
2021/10/16 03:33:01;;;;;;;;;;;;;;;5.60;nan;99415.22;5049256;28;19925;-79
2021/10/16 03:35:29;;;;;;;;;;;;;;;5.43;nan;99418.63;5090989;28;19935;-79
2021/10/16 03:37:56;;;;;;;;;;;;;;;6.18;nan;99422.88;5041447;28;19924;-79
2021/10/16 03:40:24;;;;;;;;;;;;;;;6.43;nan;99412.72;5057519;28;19924;-79
2021/10/16 03:42:52;;;;;;;;;;;;;;;6.62;nan;99409.66;5054376;28;19925;-79
2021/10/16 03:45:23;;;;;;;;;;;;;;;6.70;nan;99405.72;5054291;28;19929;-79
2021/10/16 03:47:50;;;;;;;;;;;;;;;6.65;nan;99408.88;5054396;28;20360;-79
2021/10/16 03:50:20;;;;;;;;;;;;;;;6.43;nan;99401.63;5047597;28;19931;-79
2021/10/16 03:52:48;;;;;;;;;;;;;;;6.04;nan;99395.81;5090188;28;19934;-79
2021/10/16 03:55:15;;;;;;;;;;;;;;;6.06;nan;99399.00;5054033;28;19929;-79
2021/10/16 03:57:42;;;;;;;;;;;;;;;6.40;nan;99391.28;5088897;28;19924;-79
2021/10/16 04:00:19;;;;;;;;;;;;;;;6.49;nan;99383.41;5057183;28;19925;-79
2021/10/16 04:02:53;;;;;;;;;;;;;;;6.54;nan;99389.38;5090658;28;19925;-79
2021/10/16 04:05:23;;;;;;;;;;;;;;;6.64;nan;99391.44;5037713;28;20391;-79
2021/10/16 04:07:50;;;;;;;;;;;;;;;6.17;nan;99387.97;5054358;28;19932;-79
2021/10/16 04:10:18;;;;;;;;;;;;;;;6.12;nan;99380.81;5090320;28;19932;-79
2021/10/16 04:12:52;;;;;;;;;;;;;;;6.27;nan;99376.16;5075112;28;19930;-79
2021/10/16 04:15:19;;;;;;;;;;;;;;;6.33;nan;99380.16;5053556;28;19935;-79
2021/10/16 04:17:46;;;;;;;;;;;;;;;6.33;nan;99386.47;5051413;28;20413;-79
2021/10/16 04:20:14;;;;;;;;;;;;;;;6.38;nan;99383.34;5057293;28;19925;-79
2021/10/16 04:22:48;;;;;;;;;;;;;;;6.20;nan;99368.56;5025283;28;19931;-79
2021/10/16 04:25:16;;;;;;;;;;;;;;;6.11;nan;99365.34;5040221;28;20371;-79
2021/10/16 04:27:46;;;;;;;;;;;;;;;6.18;nan;99384.03;5053458;28;19931;-80
2021/10/16 04:30:24;;;;;;;;;;;;;;;6.37;nan;99375.41;5055992;28;19924;-80
2021/10/16 04:32:51;;;;;;;;;;;;;;;6.42;nan;99383.38;5056805;28;19924;-80
2021/10/16 04:35:19;;;;;;;;;;;;;;;6.49;nan;99388.97;5036845;28;19931;-80
2021/10/16 04:37:47;;;;;;;;;;;;;;;5.74;nan;99370.19;5040559;28;19924;-79
2021/10/16 04:40:18;;;;;;;;;;;;;;;6.31;nan;99379.75;5056298;28;19930;-79
2021/10/16 04:42:47;;;;;;;;;;;;;;;6.52;nan;99388.97;5056709;28;20637;-79
2021/10/16 04:45:15;;;;;;;;;;;;;;;5.98;nan;99374.38;5056573;28;19924;-79
2021/10/16 04:47:42;;;;;;;;;;;;;;;5.29;nan;99376.91;5039811;28;19931;-79
2021/10/16 04:50:10;;;;;;;;;;;;;;;6.07;nan;99399.78;5074266;28;19950;-79
2021/10/16 04:52:40;;;;;;;;;;;;;;;6.00;nan;99394.97;5040150;28;19935;-79
2021/10/16 04:55:14;;;;;;;;;;;;;;;6.01;nan;99391.06;5056436;28;19924;-79
2021/10/16 04:57:41;;;;;;;;;;;;;;;6.32;nan;99389.63;5074135;28;20261;-79
2021/10/16 05:00:08;;;;;;;;;;;;;;;5.85;nan;99392.47;5056426;28;19924;-79
2021/10/16 05:02:41;;;;;;;;;;;;;;;5.36;nan;99390.84;5056249;28;19931;-79
2021/10/16 05:05:10;;;;;;;;;;;;;;;5.31;nan;99385.66;5055639;28;19924;-79
2021/10/16 05:07:40;;;;;;;;;;;;;;;5.65;nan;99385.56;5036204;28;19978;-79
2021/10/16 05:10:08;;;;;;;;;;;;;;;6.04;nan;99378.38;5051936;28;19950;-80
2021/10/16 05:12:35;;;;;;;;;;;;;;;6.16;nan;99378.06;5068606;28;19925;-79
2021/10/16 05:15:03;;;;;;;;;;;;;;;6.25;nan;99379.31;5068889;28;20382;-80
2021/10/16 05:17:33;;;;;;;;;;;;;;;6.33;nan;99369.06;5045143;28;19948;-79
2021/10/16 05:20:03;;;;;;;;;;;;;;;6.13;nan;99351.09;5051729;28;19935;-79
2021/10/16 05:22:38;;;;;;;;;;;;;;;6.15;nan;99363.38;5016182;28;19929;-80
2021/10/16 05:25:05;;;;;;;;;;;;;;;5.69;nan;99378.06;5066385;28;19929;-80
2021/10/16 05:27:35;;;;;;;;;;;;;;;5.50;nan;99379.91;5043790;28;19924;-80
2021/10/16 05:30:03;;;;;;;;;;;;;;;5.92;nan;99382.25;5053241;28;19925;-79
2021/10/16 05:32:33;;;;;;;;;;;;;;;6.09;nan;99380.78;5052553;28;19932;-80
2021/10/16 05:35:01;;;;;;;;;;;;;;;6.04;nan;99378.38;5050792;28;20281;-80
2021/10/16 05:37:28;;;;;;;;;;;;;;;6.18;nan;99384.81;5052234;28;19931;-79
2021/10/16 05:39:56;;;;;;;;;;;;;;;6.27;nan;99387.25;5050516;28;19974;-79
2021/10/16 05:42:23;;;;;;;;;;;;;;;6.36;nan;99382.16;5054064;28;19924;-79
2021/10/16 05:44:50;;;;;;;;;;;;;;;6.37;nan;99387.31;5038843;28;20268;-79
2021/10/16 05:47:18;;;;;;;;;;;;;;;6.40;nan;99380.19;5061965;28;19933;-79
2021/10/16 05:49:46;;;;;;;;;;;;;;;6.46;nan;99386.97;5058945;28;19939;-80
2021/10/16 05:52:13;;;;;;;;;;;;;;;6.08;nan;99391.09;5077508;28;19931;-79
2021/10/16 05:54:40;;;;;;;;;;;;;;;6.00;nan;99389.44;5045968;28;20321;-79
2021/10/16 05:57:07;;;;;;;;;;;;;;;6.04;nan;99378.38;5059754;28;19950;-79
2021/10/16 05:59:34;;;;;;;;;;;;;;;6.43;nan;99379.41;5057108;28;19924;-79
2021/10/16 06:02:02;;;;;;;;;;;;;;;5.37;nan;99384.13;5058307;28;19925;-79
2021/10/16 06:04:29;;;;;;;;;;;;;;;6.03;nan;99374.03;5045514;28;19924;-79
2021/10/16 06:06:56;;;;;;;;;;;;;;;5.84;nan;99374.25;5051684;28;19940;-79
2021/10/16 06:09:25;;;;;;;;;;;;;;;6.32;nan;99378.53;5076346;28;19924;-79
2021/10/16 06:11:52;;;;;;;;;;;;;;;6.30;nan;99375.38;5079882;28;19928;-79
2021/10/16 06:14:19;;;;;;;;;;;;;;;6.36;nan;99373.81;5095420;28;20299;-79
2021/10/16 06:16:48;;;;;;;;;;;;;;;6.55;nan;99373.53;5045052;28;20372;-79
2021/10/16 06:19:16;;;;;;;;;;;;;;;6.86;nan;99376.44;5087638;28;19970;-79
2021/10/16 06:21:43;;;;;;;;;;;;;;;7.11;nan;99376.50;5041639;28;19925;-79
2021/10/16 06:24:11;;;;;;;;;;;;;;;7.06;nan;99380.47;5086232;28;19931;-78
2021/10/16 06:26:47;;;;;;;;;;;;;;;7.13;nan;99372.13;5043057;28;19931;-78
2021/10/16 06:29:14;;;;;;;;;;;;;;;7.24;nan;99374.94;5052500;28;19928;-79
2021/10/16 06:31:42;;;;;;;;;;;;;;;7.21;nan;99370.19;5061366;28;19924;-81
2021/10/16 06:34:11;;;;;;;;;;;;;;;7.30;nan;99379.72;5085929;28;19924;-78
2021/10/16 06:36:38;;;;;;;;;;;;;;;7.06;nan;99372.13;5060137;28;19928;-77
2021/10/16 06:39:06;;;;;;;;;;;;;;;7.24;nan;99377.72;5087673;28;19931;-79
2021/10/16 06:41:39;;;;;;;;;;;;;;;6.87;nan;99380.00;5075131;28;19928;-79
2021/10/16 06:44:15;;;;;;;;;;;;;;;7.35;nan;99393.25;5090395;28;19924;-80
2021/10/16 06:47:11;;;;;;;;;;;;;;;7.53;nan;99390.50;5063040;28;20046;-79
2021/10/16 06:49:40;;;;;;;;;;;;;;;6.97;nan;99388.38;5061170;28;20360;-79
2021/10/16 06:52:08;;;;;;;;;;;;;;;7.37;nan;99395.63;5069102;28;20376;-80
2021/10/16 06:54:35;;;;;;;;;;;;;;;7.01;nan;99399.50;5061892;28;19924;-79
2021/10/16 07:00:44;;;;;;;;;;;;;;;7.29;nan;99405.16;5066459;28;19942;-79
2021/10/16 07:03:40;;;;;;;;;;;;;;;6.88;nan;99406.59;5065083;28;20283;-79
2021/10/16 07:06:09;;;;;;;;;;;;;;;7.39;nan;99407.16;5066674;28;19934;-79
2021/10/16 07:08:37;;;;;;;;;;;;;;;7.70;nan;99403.63;5038008;28;19925;-79
2021/10/16 07:11:05;;;;;;;;;;;;;;;7.72;nan;99411.56;5053271;28;19928;-79
2021/10/16 07:13:32;;;;;;;;;;;;;;;7.39;nan;99410.72;5058292;28;20375;-79
2021/10/16 07:16:00;;;;;;;;;;;;;;;7.33;nan;99412.31;5075843;28;20379;-79
2021/10/16 07:18:27;;;;;;;;;;;;;;;7.52;nan;99413.94;5037763;28;20388;-79
2021/10/16 07:20:54;;;;;;;;;;;;;;;7.87;nan;99419.53;5067809;28;19924;-80
2021/10/16 07:23:36;;;;;;;;;;;;;;;7.80;nan;99405.59;5075761;28;19924;-79
2021/10/16 07:26:03;;;;;;;;;;;;;;;7.57;nan;99419.13;5075742;28;19924;-79
2021/10/16 07:28:30;;;;;;;;;;;;;;;8.05;nan;99414.75;5057805;28;19925;-80
2021/10/16 07:30:58;;;;;;;;;;;;;;;8.26;nan;99419.53;5075532;28;19928;-79
2021/10/16 07:33:25;;;;;;;;;;;;;;;8.47;nan;99425.06;5040878;28;20378;-79
2021/10/16 07:35:52;;;;;;;;;;;;;;;8.13;nan;99421.94;5075488;28;20033;-79
2021/10/16 07:38:19;;;;;;;;;;;;;;;8.18;nan;99420.72;5075144;28;19925;-79
2021/10/16 07:40:46;;;;;;;;;;;;;;;8.50;nan;99422.28;5075461;28;19931;-80
2021/10/16 07:43:13;;;;;;;;;;;;;;;8.23;nan;99432.28;5075205;28;19925;-79
2021/10/16 07:45:41;;;;;;;;;;;;;;;8.32;nan;99429.88;5037538;28;20390;-79
2021/10/16 07:48:08;;;;;;;;;;;;;;;8.67;nan;99435.38;5067308;28;19932;-79
2021/10/16 07:50:35;;;;;;;;;;;;;;;8.55;nan;99433.03;5075165;28;19924;-79
2021/10/16 07:53:03;;;;;;;;;;;;;;;8.62;nan;99433.00;5075061;28;19931;-79
2021/10/16 07:55:31;;;;;;;;;;;;;;;8.80;nan;99435.72;5074856;28;19939;-79
2021/10/16 07:57:58;;;;;;;;;;;;;;;7.70;nan;99436.19;5057178;28;19947;-79
2021/10/16 08:00:26;;;;;;;;;;;;;;;7.62;nan;99443.75;5074649;28;19925;-79
2021/10/16 08:02:53;;;;;;;;;;;;;;;8.51;nan;99437.78;5074792;28;20335;-79
2021/10/16 08:05:20;;;;;;;;;;;;;;;8.99;nan;99432.50;5056680;28;19930;-79
2021/10/16 08:07:49;;;;;;;;;;;;;;;9.37;nan;99422.34;5056898;28;19932;-80
2021/10/16 08:10:16;;;;;;;;;;;;;;;9.68;nan;99427.72;5053389;28;19924;-80
2021/10/16 08:12:44;;;;;;;;;;;;;;;9.98;nan;99429.94;5068567;28;19925;-80
2021/10/16 08:15:12;;;;;;;;;;;;;;;10.22;nan;99415.75;5043921;28;19925;-79
2021/10/16 08:17:39;;;;;;;;;;;;;;;10.60;nan;99430.59;5074528;28;19950;-80
2021/10/16 08:20:07;;;;;;;;;;;;;;;10.80;nan;99428.75;5056976;28;19928;-80
2021/10/16 08:22:40;;;;;;;;;;;;;;;11.05;nan;99420.88;5074482;28;20403;-80
2021/10/16 08:25:12;;;;;;;;;;;;;;;10.68;nan;99423.69;5089522;28;19932;-81
2021/10/16 08:27:40;;;;;;;;;;;;;;;10.45;nan;99420.75;5056892;28;19931;-80
2021/10/16 08:30:09;;;;;;;;;;;;;;;10.09;nan;99419.47;5056375;28;19931;-80
2021/10/16 08:32:37;;;;;;;;;;;;;;;10.64;nan;99425.75;5056256;28;19924;-80
2021/10/16 08:35:04;;;;;;;;;;;;;;;10.48;nan;99431.13;5056018;28;19935;-80
2021/10/16 08:37:31;;;;;;;;;;;;;;;8.95;nan;99424.13;5056652;28;19930;-80
2021/10/16 08:39:59;;;;;;;;;;;;;;;8.99;nan;99430.50;5054026;28;20417;-80
2021/10/16 08:42:26;;;;;;;;;;;;;;;10.00;nan;99439.47;5074313;28;19924;-80
2021/10/16 08:44:58;;;;;;;;;;;;;;;10.32;nan;99428.84;5055798;28;19977;-79
2021/10/16 08:47:27;;;;;;;;;;;;;;;10.68;nan;99426.50;5071900;28;19973;-79
2021/10/16 08:49:56;;;;;;;;;;;;;;;10.79;nan;99435.56;5081165;28;19935;-80
2021/10/16 08:52:23;;;;;;;;;;;;;;;11.05;nan;99432.06;5048722;28;19925;-80
2021/10/16 08:54:50;;;;;;;;;;;;;;;11.00;nan;99424.13;5068376;28;19924;-79
2021/10/16 08:57:20;;;;;;;;;;;;;;;10.52;nan;99431.84;5054286;28;20336;-79
2021/10/16 08:59:47;;;;;;;;;;;;;;;10.84;nan;99426.72;5067300;28;20364;-80
2021/10/16 09:02:14;;;;;;;;;;;;;;;11.10;nan;99423.22;5056882;28;19924;-79
2021/10/16 09:04:41;;;;;;;;;;;;;;;11.19;nan;99423.50;5060531;28;19924;-79
2021/10/16 09:07:19;;;;;;;;;;;;;;;10.15;nan;99423.41;5077986;28;19924;-79
2021/10/16 09:09:48;;;;;;;;;;;;;;;9.54;nan;99427.03;5069886;28;19928;-79
2021/10/16 09:12:16;;;;;;;;;;;;;;;10.64;nan;99415.38;5069415;28;19924;-78
2021/10/16 09:14:52;;;;;;;;;;;;;;;11.19;nan;99408.72;5072462;28;19925;-77
2021/10/16 09:17:19;;;;;;;;;;;;;;;11.60;nan;99404.53;5072003;28;19930;-78
2021/10/16 09:19:50;;;;;;;;;;;;;;;11.76;nan;99393.53;5054766;28;19932;-78
2021/10/16 09:22:19;;;;;;;;;;;;;;;11.90;nan;99390.53;5072744;28;20269;-78
2021/10/16 09:24:47;;;;;;;;;;;;;;;12.19;nan;99388.81;5054744;28;19950;-78
2021/10/16 09:27:15;;;;;;;;;;;;;;;12.27;nan;99395.09;5055017;28;19925;-78
2021/10/16 09:29:44;;;;;;;;;;;;;;;12.32;nan;99381.41;5072191;28;19930;-78
2021/10/16 09:32:12;;;;;;;;;;;;;;;10.77;nan;99387.66;5072494;28;19928;-78
2021/10/16 09:34:41;;;;;;;;;;;;;;;11.04;nan;99391.34;5052428;28;20421;-77
2021/10/16 09:37:08;;;;;;;;;;;;;;;11.71;nan;99388.41;5071351;28;20321;-77
2021/10/16 09:39:51;;;;;;;;;;;;;;;11.28;nan;99387.44;5060402;28;19924;-77
2021/10/16 09:42:31;;;;;;;;;;;;;;;11.48;nan;99390.34;5074196;28;19933;-77
2021/10/16 09:44:59;;;;;;;;;;;;;;;12.04;nan;99379.06;5062706;28;19931;-77
2021/10/16 09:47:26;;;;;;;;;;;;;;;12.30;nan;99381.03;5062287;28;19977;-77
2021/10/16 09:49:57;;;;;;;;;;;;;;;12.49;nan;99385.09;5079091;28;19935;-78
2021/10/16 09:52:34;;;;;;;;;;;;;;;12.09;nan;99378.59;5080921;28;19935;-77
2021/10/16 09:55:02;;;;;;;;;;;;;;;12.00;nan;99375.53;5078687;28;19924;-77
2021/10/16 09:57:30;;;;;;;;;;;;;;;12.40;nan;99374.41;5080115;28;19931;-77
2021/10/16 09:59:58;;;;;;;;;;;;;;;12.09;nan;99375.00;5084773;28;19966;-78
2021/10/16 10:02:29;;;;;;;;;;;;;;;12.49;nan;99374.69;5081823;28;19928;-77
2021/10/16 10:04:57;;;;;;;;;;;;;;;12.75;nan;99370.94;5083949;28;19936;-77
2021/10/16 10:07:25;;;;;;;;;;;;;;;12.66;nan;99367.91;5082824;28;19936;-77
2021/10/16 10:09:52;;;;;;;;;;;;;;;12.87;nan;99374.34;5072543;28;19925;-77
2021/10/16 10:12:19;;;;;;;;;;;;;;;11.98;nan;99372.38;5054721;28;19924;-77
2021/10/16 10:14:48;;;;;;;;;;;;;;;12.39;nan;99377.66;5072546;28;19928;-77
2021/10/16 10:17:17;;;;;;;;;;;;;;;12.88;nan;99373.09;5071964;28;19931;-77
2021/10/16 10:19:46;;;;;;;;;;;;;;;13.27;nan;99373.13;5071584;28;19934;-77
2021/10/16 10:22:18;;;;;;;;;;;;;;;13.19;nan;99372.47;5072274;28;19932;-77
2021/10/16 10:24:46;;;;;;;;;;;;;;;13.32;nan;99370.59;5080831;28;19924;-77
2021/10/16 10:27:20;;;;;;;;;;;;;;;13.33;nan;99360.94;5081686;28;19924;-77
2021/10/16 10:30:04;;;;;;;;;;;;;;;13.22;nan;99368.00;5085535;28;19924;-77
2021/10/16 10:32:32;;;;;;;;;;;;;;;13.78;nan;99367.50;5088016;28;19933;-77
2021/10/16 10:35:01;;;;;;;;;;;;;;;13.76;nan;99363.56;5088190;28;19932;-77
2021/10/16 10:37:31;;;;;;;;;;;;;;;13.51;nan;99354.94;5086474;28;20372;-77
2021/10/16 10:39:59;;;;;;;;;;;;;;;13.59;nan;99356.31;5088762;28;19930;-77
2021/10/16 10:42:26;;;;;;;;;;;;;;;13.86;nan;99351.25;5084785;28;19924;-77
2021/10/16 10:44:54;;;;;;;;;;;;;;;13.93;nan;99354.69;5089757;28;19924;-77
2021/10/16 10:47:22;;;;;;;;;;;;;;;13.14;nan;99358.16;5083684;28;19931;-78
2021/10/16 10:49:49;;;;;;;;;;;;;;;12.73;nan;99362.19;5089530;28;19931;-78
2021/10/16 10:52:17;;;;;;;;;;;;;;;13.46;nan;99363.88;5084931;28;19931;-78
2021/10/16 10:55:07;;;;;;;;;;;;;;;13.01;nan;99349.59;5079597;28;19924;-77
2021/10/16 10:57:44;;;;;;;;;;;;;;;13.47;nan;99357.00;5083113;28;19930;-78
2021/10/16 11:00:12;;;;;;;;;;;;;;;14.26;nan;99349.88;5082324;28;20409;-76
2021/10/16 11:02:40;;;;;;;;;;;;;;;14.84;nan;99348.69;5083306;28;19973;-77
2021/10/16 11:05:23;;;;;;;;;;;;;;;14.58;nan;99347.00;5081402;28;19924;-78
2021/10/16 11:07:50;;;;;;;;;;;;;;;15.30;nan;99339.66;5077120;28;19924;-78
2021/10/16 11:10:18;;;;;;;;;;;;;;;15.54;nan;99338.13;5056963;28;19924;-78
2021/10/16 11:12:45;;;;;;;;;;;;;;;15.64;nan;99347.47;5075949;28;20396;-78
2021/10/16 11:15:13;;;;;;;;;;;;;;;15.86;nan;99335.06;5075115;28;19993;-78
2021/10/16 11:17:44;;;;;;;;;;;;;;;15.52;nan;99334.97;5057110;28;19928;-78
2021/10/16 11:20:13;;;;;;;;;;;;;;;15.79;nan;99338.13;5074854;28;19925;-78
2021/10/16 11:22:42;;;;;;;;;;;;;;;15.68;nan;99323.59;5053910;28;19924;-78
2021/10/16 11:25:15;;;;;;;;;;;;;;;15.99;nan;99318.91;5056326;28;19985;-78
2021/10/16 11:27:42;;;;;;;;;;;;;;;16.06;nan;99323.53;5074948;28;19925;-78
2021/10/16 11:30:16;;;;;;;;;;;;;;;15.76;nan;99313.66;5074320;28;20302;-77
2021/10/16 11:32:44;;;;;;;;;;;;;;;16.14;nan;99311.56;5074851;28;19961;-76
2021/10/16 11:35:11;;;;;;;;;;;;;;;15.90;nan;99312.41;5054547;28;19931;-77
2021/10/16 11:37:41;;;;;;;;;;;;;;;16.27;nan;99307.94;5077849;28;20364;-77
2021/10/16 11:40:12;;;;;;;;;;;;;;;16.34;nan;99297.19;5072913;28;20295;-77
2021/10/16 11:42:42;;;;;;;;;;;;;;;15.28;nan;99305.50;5076768;28;20220;-77
2021/10/16 11:45:12;;;;;;;;;;;;;;;16.14;nan;99291.84;5075969;28;19924;-77
2021/10/16 11:47:44;;;;;;;;;;;;;;;16.05;nan;99294.53;5069203;28;20544;-77
2021/10/16 11:50:17;;;;;;;;;;;;;;;15.79;nan;99295.88;5067720;28;19929;-77
2021/10/16 11:52:48;;;;;;;;;;;;;;;16.64;nan;99281.63;5067692;28;19977;-77
2021/10/16 11:55:23;;;;;;;;;;;;;;;16.86;nan;99283.19;5068681;28;20427;-79
2021/10/16 11:57:50;;;;;;;;;;;;;;;16.36;nan;99285.44;5069273;28;19924;-75
2021/10/16 12:00:22;;;;;;;;;;;;;;;16.12;nan;99277.41;5071005;28;19981;-77
2021/10/16 12:02:49;;;;;;;;;;;;;;;14.74;nan;99285.06;5051307;28;20356;-76
2021/10/16 12:05:18;;;;;;;;;;;;;;;14.65;nan;99293.34;5067061;28;20372;-75
2021/10/16 12:07:45;;;;;;;;;;;;;;;16.02;nan;99284.19;5066894;28;19924;-77
2021/10/16 12:10:20;;;;;;;;;;;;;;;16.54;nan;99272.28;5066018;28;19929;-78
2021/10/16 12:13:02;;;;;;;;;;;;;;;16.45;nan;99277.09;5066641;28;20064;-76
2021/10/16 12:15:34;;;;;;;;;;;;;;;17.00;nan;99268.53;5067076;28;20387;-77
2021/10/16 12:18:02;;;;;;;;;;;;;;;17.23;nan;99258.78;5065722;28;19924;-77
2021/10/16 12:20:41;;;;;;;;;;;;;;;17.61;nan;99253.63;5084774;28;19940;-77
2021/10/16 12:23:09;;;;;;;;;;;;;;;17.71;nan;99253.19;5087560;28;19928;-77
2021/10/16 12:26:02;;;;;;;;;;;;;;;17.55;nan;99252.66;5070147;28;19936;-77
2021/10/16 12:28:40;;;;;;;;;;;;;;;17.83;nan;99251.47;5059527;28;19946;-76
2021/10/16 12:31:08;;;;;;;;;;;;;;;17.12;nan;99247.09;5068316;28;19928;-77
2021/10/16 12:33:54;;;;;;;;;;;;;;;17.72;nan;99240.59;5069123;28;19942;-76
2021/10/16 12:36:28;;;;;;;;;;;;;;;17.89;nan;99233.44;5057095;28;19954;-77
2021/10/16 12:38:56;;;;;;;;;;;;;;;17.34;nan;99245.03;5067923;28;19925;-77
2021/10/16 12:41:27;;;;;;;;;;;;;;;17.41;nan;99234.22;5068620;28;20359;-76
2021/10/16 12:44:10;;;;;;;;;;;;;;;17.73;nan;99230.91;5034143;28;19925;-78
2021/10/16 12:46:38;;;;;;;;;;;;;;;17.93;nan;99236.88;5068951;28;19951;-76
2021/10/16 12:49:05;;;;;;;;;;;;;;;17.47;nan;99238.03;5067074;28;19929;-77
2021/10/16 12:51:39;;;;;;;;;;;;;;;17.15;nan;99237.72;5065968;28;19925;-77
2021/10/16 12:54:07;;;;;;;;;;;;;;;16.98;nan;99231.50;5071540;28;19957;-76
2021/10/16 12:56:46;;;;;;;;;;;;;;;16.62;nan;99236.16;5066780;28;19925;-77
2021/10/16 12:59:13;;;;;;;;;;;;;;;16.20;nan;99232.84;5066261;28;19936;-76
2021/10/16 13:01:40;;;;;;;;;;;;;;;16.44;nan;99236.03;5066603;28;20384;-77
2021/10/16 13:04:08;;;;;;;;;;;;;;;16.53;nan;99236.88;5065977;28;19932;-77
2021/10/16 13:06:36;;;;;;;;;;;;;;;17.24;nan;99232.91;5066710;28;20243;-77
2021/10/16 13:09:03;;;;;;;;;;;;;;;17.07;nan;99225.91;5066321;28;19925;-77
2021/10/16 13:11:30;;;;;;;;;;;;;;;16.99;nan;99215.38;5066244;28;19974;-77
2021/10/16 13:13:58;;;;;;;;;;;;;;;16.73;nan;99214.75;5056774;28;19931;-77
2021/10/16 13:16:26;;;;;;;;;;;;;;;17.16;nan;99209.00;5066267;28;19935;-77
2021/10/16 13:18:53;;;;;;;;;;;;;;;17.53;nan;99215.59;5066678;28;19925;-77
2021/10/16 13:21:20;;;;;;;;;;;;;;;16.56;nan;99216.22;5048357;28;19931;-77
2021/10/16 13:23:48;;;;;;;;;;;;;;;15.67;nan;99217.00;5066260;28;19928;-76
2021/10/16 13:26:15;;;;;;;;;;;;;;;16.30;nan;99214.75;5067270;28;19935;-77
2021/10/16 13:28:42;;;;;;;;;;;;;;;16.89;nan;99208.13;5069784;28;20379;-77
2021/10/16 13:31:09;;;;;;;;;;;;;;;16.45;nan;99204.53;5071296;28;19947;-76